• Join FlightAware (Why Join?)
  • Login
  • US Flag 
07:21AM EST


 

Airport Tracker/Info


-or-


 

Live Flight TrackerFlight Track Log ✈ SWA2236 ✈ 10-Jul-2013 ✈ KOAK - KLAS

Flight Track Log - Related Links

Times and Time Zones

All times are in EDT time to prevent confusion due to time zone crossing. See the SWA2236 flight status page for this flight to view local times or setup timezone preferences in your user account.

Time Position Orientation Groundspeed Altitude Reporting Facility
EDT Latitude Longitude Course Direction KTS MPH feet Rate Location/Type
12:19PM 37.7333 -122.2667 107° East 171 197 1,600  Level Northern Cal TRACON
12:20PM 37.7500 -122.3333 288° West 221 254 4,000 2,400 Climbing Northern Cal TRACON
12:21PM 37.7333 -122.4000 252° West 240 276 6,500 2,400 Climbing Northern Cal TRACON
12:22PM 37.6667 -122.4500 211° Southwest 267 307 8,900 2,160 Climbing Northern Cal TRACON
12:23PM 37.6122 -122.4608 189° South 267 307 10,800 2,760 Climbing Oakland Center
12:24PM 37.5294 -122.4736 187° South 300 345 14,400 3,120 Climbing Oakland Center
12:25PM 37.2335 -122.2175 107° East  Level FlightAware Approximate
12:25PM 37.4747 -122.3811 127° Southeast 354 407 17,200  Level Oakland Center
12:26PM 37.4431 -122.2294 105° East 376 433 20,700 2,820 Climbing Oakland Center
12:27PM 37.4125 -122.0967 106° East 394 453 23,100 2,280 Climbing Oakland Center
12:28PM 37.3817 -121.9597 106° East 405 466 25,400 1,860 Climbing Oakland Center
12:29PM 37.3506 -121.8144 105° East 423 487 27,000 780 Climbing Oakland Center
12:30PM 37.3186 -121.6714 106° East 428 493 27,000  Level Oakland Center
12:32PM 37.2853 -121.5244 106° East 434 499 27,000 300 Level Oakland Center
12:33PM 37.2539 -121.3806 105° East 432 497 27,700 1,440 Climbing Oakland Center
12:34PM 37.2203 -121.2372 106° East 431 496 30,000 2,100 Climbing Oakland Center
12:35PM 37.1797 -121.0639 106° East 432 497 32,100 1,440 Climbing Oakland Center
12:36PM 37.1456 -120.9169 106° East 436 502 33,000 420 Climbing Oakland Center
12:37PM 37.1119 -120.7700 106° East 439 505 33,000  Level Oakland Center
12:38PM 37.0778 -120.6228 106° East 440 506 33,000  Level Oakland Center
12:39PM 37.0569 -120.4717 100° East 452 520 33,000  Level Oakland Center
12:40PM 37.0822 -120.3158 78° East 456 525 33,000  Level Oakland Center
12:41PM 37.1072 -120.1572 79° East 462 532 33,000  Level Oakland Center
12:42PM 37.1311 -120.0017 79° East 459 528 33,000  Level Oakland Center
12:43PM 37.1614 -119.8131 79° East 460 529 33,000  Level Oakland Center
12:44PM 37.1836 -119.6628 79° East 458 527 33,000  Level Oakland Center
12:45PM 37.2086 -119.5064 79° East 457 526 33,000  Level Oakland Center
12:46PM 37.2325 -119.3481 79° East 460 529 33,000  Level Oakland Center
12:47PM 37.2564 -119.1914 79° East 460 529 33,000  Level Oakland Center
12:48PM 37.2800 -119.0344 79° East 458 527 33,000  Level Oakland Center
12:49PM 37.3036 -118.8783 79° East 456 525 33,000  Level Oakland Center
12:50PM 37.3306 -118.6906 80° East 456 525 33,000  Level Oakland Center
12:51PM 37.3494 -118.5611 80° East 448 516 33,000  Level Oakland Center
12:52PM 37.3756 -118.3753 80° East 451 519 33,000  Level Oakland Center
12:53PM 37.3847 -118.2200 86° East 445 512 33,000  Level Oakland Center
12:54PM 37.3939 -118.0658 86° East 445 512 33,000  Level Oakland Center
12:55PM 37.4011 -117.9106 87° East 447 514 33,000  Level Oakland Center
12:56PM 37.4078 -117.7564 87° East 443 510 33,000  Level Oakland Center
12:57PM 37.3478 -117.6275 120° Southeast 435 501 33,000  Level Oakland Center
12:58PM 37.2722 -117.5125 130° Southeast 429 494 33,000  Level Oakland Center
12:59PM 37.1964 -117.3947 129° Southeast 433 498 33,000  Level Oakland Center
01:00PM 37.1044 -117.2544 129° Southeast 435 501 33,000  Level Oakland Center
01:01PM 37.0294 -117.1403 129° Southeast 429 494 33,000  Level Oakland Center
01:02PM 36.9547 -117.0258 129° Southeast 427 491 33,000  Level Oakland Center
01:03PM 36.9250 -116.9797 129° Southeast 426 490 33,000  Level Los Angeles Center
01:04PM 36.8336 -116.8411 129° Southeast 431 496 33,000 -900 Level Los Angeles Center
01:05PM 36.7589 -116.7275 129° Southeast 426 490 31,200 -1,860 Descending Los Angeles Center
01:06PM 36.6847 -116.6172 130° Southeast 418 481 29,200 -1,980 Descending Los Angeles Center
01:07PM 36.6144 -116.5111 130° Southeast 403 464 27,200 -1,920 Descending Los Angeles Center
01:08PM 36.5458 -116.4086 130° Southeast 390 449 25,300 -1,980 Descending Los Angeles Center
01:09PM 36.4728 -116.2986 130° Southeast 375 432 23,200 -1,860 Descending Los Angeles Center
01:10PM 36.4072 -116.2017 130° Southeast 360 414 21,500 -1,740 Descending Los Angeles Center
01:11PM 36.3422 -116.1025 129° Southeast 345 397 19,600 -1,800 Descending Los Angeles Center
01:12PM 36.2942 -116.0394 133° Southeast 343 395 18,400 -1,680 Descending Los Angeles Center
01:13PM 36.2372 -115.9539 130° Southeast 336 387 16,800 -1,440 Descending Los Angeles Center
01:14PM 36.1875 -115.8608 123° Southeast 316 364 15,600 -1,380 Descending Los Angeles Center
01:15PM 36.1528 -115.7469 111° Southeast 310 357 13,900 -1,260 Descending Los Angeles Center
01:16PM 36.1200 -115.6539 114° Southeast 303 349 13,000 -480 Descending Los Angeles Center
01:17PM 36.0925 -115.5644 111° Southeast 267 307 13,000  Level Los Angeles Center
01:18PM 36.0653 -115.4775 111° Southeast 260 299 13,000 -540 Level Los Angeles Center
01:19PM 36.0364 -115.3939 113° Southeast 263 303 12,000 -1,200 Descending Los Angeles Center
01:20PM 36.0242 -115.3075 100° East 256 295 10,700 -1,380 Descending Los Angeles Center
01:21PM 36.0200 -115.2186 93° East 258 297 9,200 -1,080 Descending Los Angeles Center
01:22PM 36.0172 -115.1847 96° East 260 299 9,000 -660 Descending Los Angeles Center
01:23PM 36.0103 -115.0817 95° East 253 291 8,100 -600 Descending Los Angeles Center
01:24PM 36.0056 -115.0047 94° East 234 269 7,800 -660 Descending Los Angeles Center
01:24PM 36.0031 -114.9531 93° East 203 234 7,000 -1,200 Descending Los Angeles Center
01:25PM 36.0031 -114.9092 90° East 209 241 6,300 -1,200 Descending Los Angeles Center
01:26PM 36.0531 -114.9192 351° North 203 234 5,100 -900 Descending Los Angeles Center
01:27PM 36.0739 -114.9728 296° West 194 223 4,500 -780 Descending Los Angeles Center
01:28PM 36.0742 -115.0342 270° West 184 212 3,500 -960 Descending Los Angeles Center
01:29PM 36.0731 -115.0947 269° West 152 175 2,600 -780 Descending Los Angeles Center
01:30PM 36.0744 -115.1381 272° West 159 183 2,000 -600 Descending Los Angeles Center
01:32PM 36.0667 -115.1500 270° West  Level FlightAware Approximate